SWA43 KSAN-PHNL
Flight info
| Callsign | SWA43 |
|---|---|
| Flight time | N/A |
| Altitude | 34000 |
| Route | PADRZ2 IKAYE MQO AUDIA ADUMM CUNDU/N0463F360 BILLO R464 BITTA MAGGI3 |
| Aircraft | B38M/M-SDE1FGHILORVWXY/HB1 |
Departure
| Time | 2026-05-08 05:29 |
|---|---|
| Airport | San Diego International Airport (KSAN) |
Arrival
| Time | N/A |
|---|---|
| Airport | Daniel K. Inouye International Airport (PHNL) |
| Time | Latitude | Longitude | Altitude | Speed | Heading |
|---|---|---|---|---|---|
| 2026-05-08 04:55 | 32.73336 | -117.19768 | 25 ft | 0 kts | 281° |
| 2026-05-08 05:19 | 32.73333 | -117.19745 | 26 ft | 2 kts | 281° |
| 2026-05-08 05:19 | 32.73341 | -117.19761 | 25 ft | 4 kts | 309° |
| 2026-05-08 05:19 | 32.73362 | -117.19779 | 25 ft | 4 kts | 333° |
| 2026-05-08 05:19 | 32.73385 | -117.19782 | 27 ft | 4 kts | 20° |
| 2026-05-08 05:20 | 32.73392 | -117.19760 | 27 ft | 4 kts | 86° |
| 2026-05-08 05:20 | 32.73388 | -117.19735 | 29 ft | 1 kts | 106° |
| 2026-05-08 05:22 | 32.73389 | -117.19729 | 25 ft | 2 kts | 88° |
| 2026-05-08 05:22 | 32.73404 | -117.19691 | 26 ft | 8 kts | 59° |
| 2026-05-08 05:23 | 32.73407 | -117.19610 | 25 ft | 13 kts | 101° |
| 2026-05-08 05:23 | 32.73375 | -117.19482 | 25 ft | 19 kts | 105° |
| 2026-05-08 05:23 | 32.73334 | -117.19306 | 25 ft | 25 kts | 106° |
| 2026-05-08 05:23 | 32.73287 | -117.19109 | 28 ft | 20 kts | 105° |
| 2026-05-08 05:24 | 32.73252 | -117.18967 | 26 ft | 18 kts | 107° |
| 2026-05-08 05:24 | 32.73216 | -117.18819 | 29 ft | 19 kts | 105° |
| 2026-05-08 05:24 | 32.73181 | -117.18667 | 26 ft | 20 kts | 107° |
| 2026-05-08 05:24 | 32.73140 | -117.18508 | 26 ft | 21 kts | 105° |
| 2026-05-08 05:25 | 32.73103 | -117.18343 | 25 ft | 16 kts | 105° |
| 2026-05-08 05:25 | 32.73072 | -117.18221 | 28 ft | 15 kts | 107° |
| 2026-05-08 05:25 | 32.73039 | -117.18082 | 26 ft | 19 kts | 106° |
| 2026-05-08 05:25 | 32.73000 | -117.17924 | 28 ft | 20 kts | 106° |
| 2026-05-08 05:26 | 32.72964 | -117.17785 | 26 ft | 12 kts | 108° |
| 2026-05-08 05:26 | 32.72953 | -117.17685 | 24 ft | 13 kts | 73° |
| 2026-05-08 05:26 | 32.72956 | -117.17673 | 24 ft | 1 kts | 72° |
| 2026-05-08 05:27 | 32.72956 | -117.17672 | 24 ft | 1 kts | 72° |
| 2026-05-08 05:27 | 32.72963 | -117.17649 | 26 ft | 9 kts | 72° |
| 2026-05-08 05:27 | 32.73019 | -117.17590 | 26 ft | 8 kts | 350° |
| 2026-05-08 05:27 | 32.73032 | -117.17618 | 26 ft | 5 kts | 282° |
| 2026-05-08 05:28 | 32.73099 | -117.17915 | 25 ft | 73 kts | 285° |
| 2026-05-08 05:28 | 32.73299 | -117.18754 | 26 ft | 136 kts | 286° |
| 2026-05-08 05:28 | 32.73601 | -117.20023 | 107 ft | 176 kts | 285° |
| 2026-05-08 05:28 | 32.73986 | -117.21484 | 616 ft | 191 kts | 287° |
| 2026-05-08 05:29 | 32.74503 | -117.22928 | 1422 ft | 191 kts | 303° |
| 2026-05-08 05:29 | 32.75301 | -117.24232 | 2008 ft | 207 kts | 307° |
| 2026-05-08 05:29 | 32.76182 | -117.25666 | 2556 ft | 224 kts | 306° |
| 2026-05-08 05:29 | 32.77107 | -117.27249 | 3130 ft | 241 kts | 305° |
| 2026-05-08 05:30 | 32.78117 | -117.28924 | 3802 ft | 254 kts | 307° |
| 2026-05-08 05:30 | 32.79179 | -117.30610 | 4784 ft | 255 kts | 307° |
| 2026-05-08 05:30 | 32.80238 | -117.32315 | 5647 ft | 261 kts | 307° |
| 2026-05-08 05:30 | 32.81358 | -117.34077 | 6311 ft | 273 kts | 309° |
| 2026-05-08 05:31 | 32.82541 | -117.35851 | 7203 ft | 271 kts | 309° |
| 2026-05-08 05:31 | 32.83679 | -117.37592 | 8288 ft | 264 kts | 310° |
| 2026-05-08 05:31 | 32.84834 | -117.39338 | 8947 ft | 276 kts | 311° |
| 2026-05-08 05:31 | 32.86032 | -117.41184 | 9565 ft | 286 kts | 309° |
| 2026-05-08 05:32 | 32.87227 | -117.43093 | 10341 ft | 288 kts | 310° |
| 2026-05-08 05:32 | 32.88436 | -117.44997 | 11089 ft | 290 kts | 310° |
| 2026-05-08 05:32 | 32.89690 | -117.46913 | 11695 ft | 298 kts | 311° |
| 2026-05-08 05:32 | 32.91006 | -117.48870 | 12227 ft | 307 kts | 310° |
| 2026-05-08 05:33 | 32.92310 | -117.50896 | 12970 ft | 308 kts | 309° |
| 2026-05-08 05:33 | 32.93585 | -117.52958 | 13701 ft | 311 kts | 309° |
| 2026-05-08 05:33 | 32.94881 | -117.55059 | 14188 ft | 320 kts | 309° |
| 2026-05-08 05:33 | 32.96237 | -117.57202 | 14624 ft | 328 kts | 310° |
| 2026-05-08 05:34 | 32.97614 | -117.59390 | 15256 ft | 329 kts | 309° |
| 2026-05-08 05:34 | 32.98994 | -117.61532 | 16042 ft | 324 kts | 311° |
| 2026-05-08 05:34 | 33.00402 | -117.63652 | 16601 ft | 330 kts | 310° |
| 2026-05-08 05:34 | 33.01833 | -117.65840 | 16983 ft | 339 kts | 310° |
| 2026-05-08 05:35 | 33.03280 | -117.68068 | 17618 ft | 339 kts | 310° |
| 2026-05-08 05:35 | 33.04715 | -117.70292 | 18289 ft | 340 kts | 310° |
| 2026-05-08 05:35 | 33.06154 | -117.72549 | 18718 ft | 345 kts | 310° |
| 2026-05-08 05:35 | 33.07614 | -117.74868 | 19055 ft | 353 kts | 309° |
| 2026-05-08 05:36 | 33.09053 | -117.77269 | 19465 ft | 358 kts | 305° |
| 2026-05-08 05:36 | 33.10205 | -117.79933 | 19826 ft | 368 kts | 292° |
| 2026-05-08 05:36 | 33.10869 | -117.82925 | 20121 ft | 378 kts | 283° |
| 2026-05-08 05:36 | 33.11346 | -117.85969 | 20675 ft | 376 kts | 283° |
| 2026-05-08 05:37 | 33.11850 | -117.89018 | 21246 ft | 375 kts | 286° |
| 2026-05-08 05:37 | 33.11962 | -117.89579 | 21295 ft | 377 kts | 287° |
| 2026-05-08 05:39 | 33.12075 | -117.90108 | 21311 ft | 379 kts | 287° |
| 2026-05-08 05:39 | 33.12772 | -117.93197 | 21320 ft | 394 kts | 288° |
| 2026-05-08 05:39 | 33.13520 | -117.96406 | 21366 ft | 408 kts | 288° |
| 2026-05-08 05:39 | 33.14038 | -117.98588 | 21405 ft | 416 kts | 288° |
| 2026-05-08 05:40 | 33.14836 | -118.01925 | 21821 ft | 418 kts | 288° |
| 2026-05-08 05:40 | 33.15639 | -118.05275 | 22216 ft | 422 kts | 288° |
| 2026-05-08 05:40 | 33.16712 | -118.09749 | 22751 ft | 425 kts | 288° |
| 2026-05-08 05:40 | 33.17527 | -118.13151 | 23154 ft | 428 kts | 288° |
| 2026-05-08 05:41 | 33.18346 | -118.16577 | 23558 ft | 431 kts | 288° |
| 2026-05-08 05:41 | 33.18903 | -118.18906 | 23800 ft | 432 kts | 288° |
| 2026-05-08 05:41 | 33.19729 | -118.22368 | 24135 ft | 435 kts | 288° |
| 2026-05-08 05:41 | 33.20548 | -118.25803 | 24475 ft | 437 kts | 288° |
| 2026-05-08 05:42 | 33.21380 | -118.29298 | 24808 ft | 439 kts | 288° |
| 2026-05-08 05:42 | 33.22227 | -118.32860 | 25154 ft | 441 kts | 288° |
| 2026-05-08 05:42 | 33.23054 | -118.36347 | 25466 ft | 443 kts | 288° |
| 2026-05-08 05:42 | 33.23779 | -118.39404 | 25762 ft | 445 kts | 288° |
| 2026-05-08 05:43 | 33.24622 | -118.42965 | 26064 ft | 447 kts | 288° |
| 2026-05-08 05:43 | 33.25470 | -118.46549 | 26393 ft | 449 kts | 288° |
| 2026-05-08 05:43 | 33.26319 | -118.50146 | 26708 ft | 451 kts | 288° |
| 2026-05-08 05:43 | 33.27171 | -118.53759 | 27017 ft | 453 kts | 288° |
| 2026-05-08 05:44 | 33.28025 | -118.57389 | 27304 ft | 455 kts | 287° |
| 2026-05-08 05:44 | 33.28883 | -118.61039 | 27595 ft | 457 kts | 287° |
| 2026-05-08 05:44 | 33.29744 | -118.64703 | 27874 ft | 459 kts | 287° |
| 2026-05-08 05:44 | 33.30605 | -118.68377 | 28165 ft | 461 kts | 287° |
| 2026-05-08 05:45 | 33.31471 | -118.72080 | 28452 ft | 463 kts | 287° |
| 2026-05-08 05:45 | 33.32338 | -118.75789 | 28730 ft | 464 kts | 287° |
| 2026-05-08 05:45 | 33.33208 | -118.79517 | 29000 ft | 466 kts | 287° |
| 2026-05-08 05:45 | 33.34081 | -118.83263 | 29281 ft | 468 kts | 287° |
| 2026-05-08 05:46 | 33.34955 | -118.87020 | 29551 ft | 470 kts | 287° |
| 2026-05-08 05:46 | 33.35833 | -118.90795 | 29833 ft | 472 kts | 287° |
| 2026-05-08 05:46 | 33.36712 | -118.94583 | 30074 ft | 474 kts | 287° |
| 2026-05-08 05:46 | 33.37580 | -118.98333 | 30344 ft | 474 kts | 287° |
| 2026-05-08 05:47 | 33.38459 | -119.02136 | 30668 ft | 473 kts | 287° |
| 2026-05-08 05:47 | 33.39335 | -119.05932 | 30995 ft | 472 kts | 287° |
| 2026-05-08 05:47 | 33.40207 | -119.09712 | 31333 ft | 471 kts | 287° |
| 2026-05-08 05:47 | 33.41086 | -119.13534 | 31672 ft | 470 kts | 287° |
| 2026-05-08 05:48 | 33.41952 | -119.17302 | 31995 ft | 468 kts | 287° |
| 2026-05-08 05:48 | 33.42803 | -119.21014 | 32329 ft | 467 kts | 287° |
| 2026-05-08 05:48 | 33.43660 | -119.24757 | 32652 ft | 465 kts | 287° |
| 2026-05-08 05:48 | 33.44514 | -119.28487 | 32971 ft | 464 kts | 287° |
| 2026-05-08 05:49 | 33.45375 | -119.32258 | 33293 ft | 463 kts | 287° |